sensor_id;sensor_type;location;lat;lon;timestamp;P1;durP1;ratioP1;P2;durP2;ratioP2
16660;SDS011;8444;52.012;5.048;2023-08-24T00:01:10;3.60;;;2.22;;
16660;SDS011;8444;52.012;5.048;2023-08-24T00:03:39;4.55;;;2.55;;
16660;SDS011;8444;52.012;5.048;2023-08-24T00:06:05;6.75;;;3.47;;
16660;SDS011;8444;52.012;5.048;2023-08-24T00:08:31;6.38;;;2.95;;
16660;SDS011;8444;52.012;5.048;2023-08-24T00:10:56;6.60;;;3.15;;
16660;SDS011;8444;52.012;5.048;2023-08-24T00:13:21;7.38;;;2.83;;
16660;SDS011;8444;52.012;5.048;2023-08-24T00:15:46;7.20;;;3.35;;
16660;SDS011;8444;52.012;5.048;2023-08-24T00:18:12;5.85;;;3.25;;
16660;SDS011;8444;52.012;5.048;2023-08-24T00:20:37;2.92;;;2.63;;
16660;SDS011;8444;52.012;5.048;2023-08-24T00:23:02;4.78;;;2.67;;
16660;SDS011;8444;52.012;5.048;2023-08-24T00:25:28;4.95;;;3.33;;
16660;SDS011;8444;52.012;5.048;2023-08-24T00:27:53;8.48;;;3.83;;
16660;SDS011;8444;52.012;5.048;2023-08-24T00:30:18;5.80;;;3.40;;
16660;SDS011;8444;52.012;5.048;2023-08-24T00:32:44;3.90;;;3.10;;
16660;SDS011;8444;52.012;5.048;2023-08-24T00:35:09;4.40;;;3.22;;
16660;SDS011;8444;52.012;5.048;2023-08-24T00:37:35;7.80;;;4.32;;
16660;SDS011;8444;52.012;5.048;2023-08-24T00:40:01;5.72;;;4.00;;
16660;SDS011;8444;52.012;5.048;2023-08-24T00:42:32;5.30;;;3.40;;
16660;SDS011;8444;52.012;5.048;2023-08-24T00:44:57;5.90;;;4.10;;
16660;SDS011;8444;52.012;5.048;2023-08-24T00:47:23;5.55;;;3.72;;
16660;SDS011;8444;52.012;5.048;2023-08-24T00:49:48;9.25;;;4.55;;
16660;SDS011;8444;52.012;5.048;2023-08-24T00:52:14;5.78;;;3.28;;
16660;SDS011;8444;52.012;5.048;2023-08-24T00:54:39;9.20;;;4.28;;
16660;SDS011;8444;52.012;5.048;2023-08-24T00:57:06;8.25;;;4.05;;
16660;SDS011;8444;52.012;5.048;2023-08-24T00:59:32;4.32;;;3.90;;
16660;SDS011;8444;52.012;5.048;2023-08-24T01:01:57;5.50;;;3.90;;
16660;SDS011;8444;52.012;5.048;2023-08-24T01:04:23;8.23;;;3.55;;
16660;SDS011;8444;52.012;5.048;2023-08-24T01:06:49;8.48;;;4.30;;
16660;SDS011;8444;52.012;5.048;2023-08-24T01:09:14;6.80;;;4.00;;
16660;SDS011;8444;52.012;5.048;2023-08-24T01:11:45;8.90;;;4.53;;
16660;SDS011;8444;52.012;5.048;2023-08-24T01:14:28;6.35;;;4.30;;
16660;SDS011;8444;52.012;5.048;2023-08-24T01:16:56;8.50;;;5.10;;
16660;SDS011;8444;52.012;5.048;2023-08-24T01:21:51;9.35;;;4.70;;
16660;SDS011;8444;52.012;5.048;2023-08-24T01:24:20;7.75;;;4.65;;
16660;SDS011;8444;52.012;5.048;2023-08-24T01:26:48;6.53;;;4.93;;
16660;SDS011;8444;52.012;5.048;2023-08-24T01:29:13;9.32;;;4.93;;
16660;SDS011;8444;52.012;5.048;2023-08-24T01:31:40;7.32;;;4.18;;
16660;SDS011;8444;52.012;5.048;2023-08-24T01:34:05;9.05;;;4.82;;
16660;SDS011;8444;52.012;5.048;2023-08-24T01:36:31;7.38;;;5.05;;
16660;SDS011;8444;52.012;5.048;2023-08-24T01:39:07;7.05;;;4.70;;
16660;SDS011;8444;52.012;5.048;2023-08-24T01:41:36;10.98;;;4.82;;
16660;SDS011;8444;52.012;5.048;2023-08-24T01:44:07;5.97;;;4.55;;
16660;SDS011;8444;52.012;5.048;2023-08-24T01:46:33;6.78;;;5.32;;
16660;SDS011;8444;52.012;5.048;2023-08-24T01:48:59;14.82;;;6.43;;
16660;SDS011;8444;52.012;5.048;2023-08-24T01:51:24;6.07;;;4.57;;
16660;SDS011;8444;52.012;5.048;2023-08-24T01:53:50;9.40;;;5.28;;
16660;SDS011;8444;52.012;5.048;2023-08-24T01:56:17;9.15;;;4.97;;
16660;SDS011;8444;52.012;5.048;2023-08-24T01:58:42;8.65;;;5.35;;
16660;SDS011;8444;52.012;5.048;2023-08-24T02:01:07;6.75;;;5.47;;
16660;SDS011;8444;52.012;5.048;2023-08-24T02:03:33;7.35;;;4.85;;
16660;SDS011;8444;52.012;5.048;2023-08-24T02:05:58;7.05;;;5.20;;
16660;SDS011;8444;52.012;5.048;2023-08-24T02:08:23;9.75;;;5.07;;
16660;SDS011;8444;52.012;5.048;2023-08-24T02:10:48;6.93;;;5.22;;
16660;SDS011;8444;52.012;5.048;2023-08-24T02:13:14;7.32;;;4.68;;
16660;SDS011;8444;52.012;5.048;2023-08-24T02:15:39;9.30;;;5.50;;
16660;SDS011;8444;52.012;5.048;2023-08-24T02:18:05;10.43;;;5.47;;
16660;SDS011;8444;52.012;5.048;2023-08-24T02:20:30;9.85;;;4.95;;
16660;SDS011;8444;52.012;5.048;2023-08-24T02:22:55;7.45;;;5.03;;
16660;SDS011;8444;52.012;5.048;2023-08-24T02:25:20;10.00;;;5.63;;
16660;SDS011;8444;52.012;5.048;2023-08-24T02:27:46;9.15;;;6.20;;
16660;SDS011;8444;52.012;5.048;2023-08-24T02:30:11;11.68;;;5.82;;
16660;SDS011;8444;52.012;5.048;2023-08-24T02:32:36;7.50;;;5.25;;
16660;SDS011;8444;52.012;5.048;2023-08-24T02:35:02;11.88;;;5.57;;
16660;SDS011;8444;52.012;5.048;2023-08-24T02:37:27;8.18;;;6.70;;
16660;SDS011;8444;52.012;5.048;2023-08-24T02:39:52;9.82;;;6.35;;
16660;SDS011;8444;52.012;5.048;2023-08-24T02:42:18;11.52;;;7.10;;
16660;SDS011;8444;52.012;5.048;2023-08-24T02:44:43;11.07;;;6.43;;
16660;SDS011;8444;52.012;5.048;2023-08-24T02:47:08;9.27;;;5.93;;
16660;SDS011;8444;52.012;5.048;2023-08-24T02:49:33;8.30;;;5.90;;
16660;SDS011;8444;52.012;5.048;2023-08-24T02:51:58;12.00;;;6.70;;
16660;SDS011;8444;52.012;5.048;2023-08-24T02:54:25;12.43;;;6.63;;
16660;SDS011;8444;52.012;5.048;2023-08-24T02:56:50;9.40;;;6.47;;
16660;SDS011;8444;52.012;5.048;2023-08-24T02:59:15;7.97;;;6.22;;
16660;SDS011;8444;52.012;5.048;2023-08-24T03:01:40;10.90;;;6.93;;
16660;SDS011;8444;52.012;5.048;2023-08-24T03:04:06;9.90;;;6.30;;
16660;SDS011;8444;52.012;5.048;2023-08-24T03:06:31;9.23;;;6.47;;
16660;SDS011;8444;52.012;5.048;2023-08-24T03:08:56;9.27;;;6.90;;
16660;SDS011;8444;52.012;5.048;2023-08-24T03:11:22;10.25;;;7.57;;
16660;SDS011;8444;52.012;5.048;2023-08-24T03:13:47;10.18;;;7.65;;
16660;SDS011;8444;52.012;5.048;2023-08-24T03:16:12;11.02;;;7.15;;
16660;SDS011;8444;52.012;5.048;2023-08-24T03:18:37;14.10;;;7.78;;
16660;SDS011;8444;52.012;5.048;2023-08-24T03:21:03;15.02;;;8.98;;
16660;SDS011;8444;52.012;5.048;2023-08-24T03:23:28;12.85;;;8.07;;
16660;SDS011;8444;52.012;5.048;2023-08-24T03:25:54;15.43;;;8.85;;
16660;SDS011;8444;52.012;5.048;2023-08-24T03:28:20;16.13;;;8.70;;
16660;SDS011;8444;52.012;5.048;2023-08-24T03:30:49;11.68;;;8.05;;
16660;SDS011;8444;52.012;5.048;2023-08-24T03:33:15;23.45;;;8.80;;
16660;SDS011;8444;52.012;5.048;2023-08-24T03:35:40;13.52;;;9.07;;
16660;SDS011;8444;52.012;5.048;2023-08-24T03:38:05;13.05;;;8.65;;
16660;SDS011;8444;52.012;5.048;2023-08-24T03:40:31;15.30;;;9.80;;
16660;SDS011;8444;52.012;5.048;2023-08-24T03:42:56;14.77;;;9.98;;
16660;SDS011;8444;52.012;5.048;2023-08-24T03:45:21;14.23;;;8.73;;
16660;SDS011;8444;52.012;5.048;2023-08-24T03:47:46;16.17;;;9.93;;
16660;SDS011;8444;52.012;5.048;2023-08-24T03:50:12;17.63;;;9.43;;
16660;SDS011;8444;52.012;5.048;2023-08-24T03:52:37;16.95;;;10.25;;
16660;SDS011;8444;52.012;5.048;2023-08-24T03:55:04;15.85;;;9.93;;
16660;SDS011;8444;52.012;5.048;2023-08-24T03:57:30;19.35;;;9.18;;
16660;SDS011;8444;52.012;5.048;2023-08-24T03:59:55;13.15;;;9.52;;
16660;SDS011;8444;52.012;5.048;2023-08-24T04:02:21;13.60;;;9.50;;
16660;SDS011;8444;52.012;5.048;2023-08-24T04:04:46;15.75;;;8.90;;
16660;SDS011;8444;52.012;5.048;2023-08-24T04:07:11;14.57;;;9.40;;
16660;SDS011;8444;52.012;5.048;2023-08-24T04:09:36;15.50;;;10.23;;
16660;SDS011;8444;52.012;5.048;2023-08-24T04:12:01;14.32;;;9.95;;
16660;SDS011;8444;52.012;5.048;2023-08-24T04:14:27;17.30;;;10.43;;
16660;SDS011;8444;52.012;5.048;2023-08-24T04:16:52;18.23;;;10.80;;
16660;SDS011;8444;52.012;5.048;2023-08-24T04:19:17;15.15;;;10.27;;
16660;SDS011;8444;52.012;5.048;2023-08-24T04:21:42;14.70;;;10.23;;
16660;SDS011;8444;52.012;5.048;2023-08-24T04:24:08;15.88;;;10.70;;
16660;SDS011;8444;52.012;5.048;2023-08-24T04:26:33;21.15;;;12.00;;
16660;SDS011;8444;52.012;5.048;2023-08-24T04:28:58;17.83;;;11.45;;
16660;SDS011;8444;52.012;5.048;2023-08-24T04:31:24;16.23;;;10.32;;
16660;SDS011;8444;52.012;5.048;2023-08-24T04:33:49;14.93;;;10.07;;
16660;SDS011;8444;52.012;5.048;2023-08-24T04:36:14;16.85;;;11.73;;
16660;SDS011;8444;52.012;5.048;2023-08-24T04:38:40;16.63;;;10.45;;
16660;SDS011;8444;52.012;5.048;2023-08-24T04:41:07;19.17;;;10.80;;
16660;SDS011;8444;52.012;5.048;2023-08-24T04:43:33;17.42;;;11.13;;
16660;SDS011;8444;52.012;5.048;2023-08-24T04:45:58;15.15;;;11.25;;
16660;SDS011;8444;52.012;5.048;2023-08-24T04:48:23;14.20;;;9.48;;
16660;SDS011;8444;52.012;5.048;2023-08-24T04:50:49;21.20;;;11.25;;
16660;SDS011;8444;52.012;5.048;2023-08-24T04:53:16;15.38;;;10.98;;
16660;SDS011;8444;52.012;5.048;2023-08-24T04:55:41;15.45;;;10.02;;
16660;SDS011;8444;52.012;5.048;2023-08-24T04:58:07;19.33;;;10.65;;
16660;SDS011;8444;52.012;5.048;2023-08-24T05:00:32;17.08;;;11.02;;
16660;SDS011;8444;52.012;5.048;2023-08-24T05:02:58;15.50;;;11.65;;
16660;SDS011;8444;52.012;5.048;2023-08-24T05:05:23;15.35;;;9.15;;
16660;SDS011;8444;52.012;5.048;2023-08-24T05:07:48;18.08;;;11.85;;
16660;SDS011;8444;52.012;5.048;2023-08-24T05:10:14;13.18;;;10.85;;
16660;SDS011;8444;52.012;5.048;2023-08-24T05:12:39;15.60;;;10.77;;
16660;SDS011;8444;52.012;5.048;2023-08-24T05:15:05;19.60;;;12.18;;
16660;SDS011;8444;52.012;5.048;2023-08-24T05:17:30;14.85;;;10.27;;
16660;SDS011;8444;52.012;5.048;2023-08-24T05:19:56;14.20;;;9.70;;
16660;SDS011;8444;52.012;5.048;2023-08-24T05:22:22;14.40;;;10.32;;
16660;SDS011;8444;52.012;5.048;2023-08-24T05:24:47;17.38;;;10.13;;
16660;SDS011;8444;52.012;5.048;2023-08-24T05:27:12;13.05;;;9.98;;
16660;SDS011;8444;52.012;5.048;2023-08-24T05:29:37;15.70;;;11.02;;
16660;SDS011;8444;52.012;5.048;2023-08-24T05:32:03;17.02;;;10.60;;
16660;SDS011;8444;52.012;5.048;2023-08-24T05:34:28;15.80;;;10.30;;
16660;SDS011;8444;52.012;5.048;2023-08-24T05:36:53;15.85;;;10.55;;
16660;SDS011;8444;52.012;5.048;2023-08-24T05:39:19;15.75;;;10.27;;
16660;SDS011;8444;52.012;5.048;2023-08-24T05:41:44;18.20;;;11.73;;
16660;SDS011;8444;52.012;5.048;2023-08-24T05:44:09;24.30;;;12.57;;
16660;SDS011;8444;52.012;5.048;2023-08-24T05:46:34;20.65;;;12.77;;
16660;SDS011;8444;52.012;5.048;2023-08-24T05:49:00;19.58;;;12.52;;
16660;SDS011;8444;52.012;5.048;2023-08-24T05:51:25;19.60;;;11.93;;
16660;SDS011;8444;52.012;5.048;2023-08-24T05:53:50;17.45;;;10.25;;
16660;SDS011;8444;52.012;5.048;2023-08-24T05:56:20;17.25;;;11.23;;
16660;SDS011;8444;52.012;5.048;2023-08-24T05:58:45;15.68;;;10.52;;
16660;SDS011;8444;52.012;5.048;2023-08-24T06:01:11;15.82;;;10.02;;
16660;SDS011;8444;52.012;5.048;2023-08-24T06:03:36;16.65;;;10.13;;
16660;SDS011;8444;52.012;5.048;2023-08-24T06:06:02;13.10;;;9.38;;
16660;SDS011;8444;52.012;5.048;2023-08-24T06:08:28;14.32;;;10.23;;
16660;SDS011;8444;52.012;5.048;2023-08-24T06:10:53;20.45;;;10.75;;
16660;SDS011;8444;52.012;5.048;2023-08-24T06:13:18;15.27;;;10.70;;
16660;SDS011;8444;52.012;5.048;2023-08-24T06:15:44;13.13;;;10.18;;
16660;SDS011;8444;52.012;5.048;2023-08-24T06:18:09;18.15;;;9.95;;
16660;SDS011;8444;52.012;5.048;2023-08-24T06:20:34;23.17;;;10.52;;
16660;SDS011;8444;52.012;5.048;2023-08-24T06:22:59;15.88;;;9.23;;
16660;SDS011;8444;52.012;5.048;2023-08-24T06:25:25;13.77;;;9.40;;
16660;SDS011;8444;52.012;5.048;2023-08-24T06:27:50;16.45;;;10.85;;
16660;SDS011;8444;52.012;5.048;2023-08-24T06:30:15;15.52;;;9.98;;
16660;SDS011;8444;52.012;5.048;2023-08-24T06:32:40;19.10;;;11.07;;
16660;SDS011;8444;52.012;5.048;2023-08-24T06:35:05;15.07;;;10.63;;
16660;SDS011;8444;52.012;5.048;2023-08-24T06:37:31;14.18;;;10.23;;
16660;SDS011;8444;52.012;5.048;2023-08-24T06:39:56;15.68;;;10.45;;
16660;SDS011;8444;52.012;5.048;2023-08-24T06:42:21;17.10;;;10.43;;
16660;SDS011;8444;52.012;5.048;2023-08-24T06:44:47;13.07;;;9.73;;
16660;SDS011;8444;52.012;5.048;2023-08-24T06:47:15;13.15;;;8.38;;
16660;SDS011;8444;52.012;5.048;2023-08-24T06:49:40;12.82;;;9.30;;
16660;SDS011;8444;52.012;5.048;2023-08-24T06:52:05;13.80;;;9.32;;
16660;SDS011;8444;52.012;5.048;2023-08-24T06:54:30;14.27;;;9.50;;
16660;SDS011;8444;52.012;5.048;2023-08-24T06:56:55;11.98;;;8.68;;
16660;SDS011;8444;52.012;5.048;2023-08-24T06:59:21;14.30;;;9.48;;
16660;SDS011;8444;52.012;5.048;2023-08-24T07:01:46;13.25;;;7.75;;
16660;SDS011;8444;52.012;5.048;2023-08-24T07:04:12;17.27;;;9.43;;
16660;SDS011;8444;52.012;5.048;2023-08-24T07:06:37;11.50;;;8.70;;
16660;SDS011;8444;52.012;5.048;2023-08-24T07:09:02;15.30;;;9.52;;
16660;SDS011;8444;52.012;5.048;2023-08-24T07:11:31;16.25;;;9.43;;
16660;SDS011;8444;52.012;5.048;2023-08-24T07:13:56;11.88;;;7.85;;
16660;SDS011;8444;52.012;5.048;2023-08-24T07:16:21;11.10;;;8.80;;
16660;SDS011;8444;52.012;5.048;2023-08-24T07:18:47;11.43;;;8.75;;
16660;SDS011;8444;52.012;5.048;2023-08-24T07:21:12;17.08;;;9.10;;
16660;SDS011;8444;52.012;5.048;2023-08-24T07:23:39;12.10;;;9.38;;
16660;SDS011;8444;52.012;5.048;2023-08-24T07:26:04;12.02;;;8.50;;
16660;SDS011;8444;52.012;5.048;2023-08-24T07:28:30;13.00;;;8.55;;
16660;SDS011;8444;52.012;5.048;2023-08-24T07:30:55;14.90;;;8.57;;
16660;SDS011;8444;52.012;5.048;2023-08-24T07:33:21;17.02;;;8.55;;
16660;SDS011;8444;52.012;5.048;2023-08-24T07:35:46;10.15;;;9.05;;
16660;SDS011;8444;52.012;5.048;2023-08-24T07:38:11;11.33;;;7.80;;
16660;SDS011;8444;52.012;5.048;2023-08-24T07:40:37;10.65;;;7.88;;
16660;SDS011;8444;52.012;5.048;2023-08-24T07:43:02;12.48;;;8.35;;
16660;SDS011;8444;52.012;5.048;2023-08-24T07:45:27;15.13;;;8.85;;
16660;SDS011;8444;52.012;5.048;2023-08-24T07:47:53;9.95;;;8.07;;
16660;SDS011;8444;52.012;5.048;2023-08-24T07:50:18;11.48;;;8.25;;
16660;SDS011;8444;52.012;5.048;2023-08-24T07:52:44;13.98;;;8.57;;
16660;SDS011;8444;52.012;5.048;2023-08-24T07:55:09;11.25;;;7.40;;
16660;SDS011;8444;52.012;5.048;2023-08-24T07:57:35;9.73;;;7.68;;
16660;SDS011;8444;52.012;5.048;2023-08-24T08:00:01;13.60;;;8.15;;
16660;SDS011;8444;52.012;5.048;2023-08-24T08:02:27;9.65;;;7.70;;
16660;SDS011;8444;52.012;5.048;2023-08-24T08:04:58;12.85;;;7.55;;
16660;SDS011;8444;52.012;5.048;2023-08-24T08:07:24;11.65;;;8.00;;
16660;SDS011;8444;52.012;5.048;2023-08-24T08:09:49;9.20;;;7.15;;
16660;SDS011;8444;52.012;5.048;2023-08-24T08:12:15;9.85;;;7.38;;
16660;SDS011;8444;52.012;5.048;2023-08-24T08:14:40;16.77;;;7.95;;
16660;SDS011;8444;52.012;5.048;2023-08-24T08:17:05;12.52;;;8.00;;
16660;SDS011;8444;52.012;5.048;2023-08-24T08:19:31;11.13;;;8.32;;
16660;SDS011;8444;52.012;5.048;2023-08-24T08:21:57;10.38;;;8.25;;
16660;SDS011;8444;52.012;5.048;2023-08-24T08:24:22;10.10;;;8.65;;
16660;SDS011;8444;52.012;5.048;2023-08-24T08:26:47;12.87;;;8.10;;
16660;SDS011;8444;52.012;5.048;2023-08-24T08:29:13;10.37;;;7.13;;
16660;SDS011;8444;52.012;5.048;2023-08-24T08:31:38;12.63;;;6.73;;
16660;SDS011;8444;52.012;5.048;2023-08-24T08:34:03;12.88;;;7.93;;
16660;SDS011;8444;52.012;5.048;2023-08-24T08:36:31;9.48;;;8.32;;
16660;SDS011;8444;52.012;5.048;2023-08-24T08:38:59;13.55;;;8.50;;
16660;SDS011;8444;52.012;5.048;2023-08-24T08:41:25;11.43;;;8.35;;
16660;SDS011;8444;52.012;5.048;2023-08-24T08:43:52;11.52;;;8.80;;
16660;SDS011;8444;52.012;5.048;2023-08-24T08:46:17;11.05;;;8.05;;
16660;SDS011;8444;52.012;5.048;2023-08-24T08:48:43;11.38;;;8.38;;
16660;SDS011;8444;52.012;5.048;2023-08-24T08:51:10;14.88;;;8.20;;
16660;SDS011;8444;52.012;5.048;2023-08-24T08:53:36;14.10;;;9.98;;
16660;SDS011;8444;52.012;5.048;2023-08-24T08:56:02;14.93;;;9.38;;
16660;SDS011;8444;52.012;5.048;2023-08-24T08:58:29;9.48;;;7.28;;
16660;SDS011;8444;52.012;5.048;2023-08-24T09:00:56;12.88;;;8.30;;
16660;SDS011;8444;52.012;5.048;2023-08-24T09:03:21;12.77;;;8.52;;
16660;SDS011;8444;52.012;5.048;2023-08-24T09:05:47;10.30;;;8.30;;
16660;SDS011;8444;52.012;5.048;2023-08-24T09:08:13;15.90;;;9.35;;
16660;SDS011;8444;52.012;5.048;2023-08-24T09:10:39;14.00;;;8.55;;
16660;SDS011;8444;52.012;5.048;2023-08-24T09:13:04;11.05;;;7.82;;
16660;SDS011;8444;52.012;5.048;2023-08-24T09:15:32;12.33;;;9.00;;
16660;SDS011;8444;52.012;5.048;2023-08-24T09:17:59;19.15;;;8.38;;
16660;SDS011;8444;52.012;5.048;2023-08-24T09:20:27;7.75;;;6.72;;
16660;SDS011;8444;52.012;5.048;2023-08-24T09:22:52;10.43;;;8.52;;
16660;SDS011;8444;52.012;5.048;2023-08-24T09:25:20;10.93;;;6.90;;
16660;SDS011;8444;52.012;5.048;2023-08-24T09:27:45;11.73;;;8.93;;
16660;SDS011;8444;52.012;5.048;2023-08-24T09:30:10;11.85;;;9.32;;
16660;SDS011;8444;52.012;5.048;2023-08-24T09:32:36;11.50;;;8.05;;
16660;SDS011;8444;52.012;5.048;2023-08-24T09:37:33;9.90;;;8.00;;
16660;SDS011;8444;52.012;5.048;2023-08-24T09:40:02;11.45;;;8.73;;
16660;SDS011;8444;52.012;5.048;2023-08-24T09:42:33;8.90;;;7.50;;
16660;SDS011;8444;52.012;5.048;2023-08-24T09:45:04;10.55;;;7.30;;
16660;SDS011;8444;52.012;5.048;2023-08-24T09:47:30;13.43;;;8.43;;
16660;SDS011;8444;52.012;5.048;2023-08-24T09:49:55;9.95;;;7.03;;
16660;SDS011;8444;52.012;5.048;2023-08-24T09:52:21;10.90;;;7.63;;
16660;SDS011;8444;52.012;5.048;2023-08-24T09:54:46;10.88;;;8.23;;
16660;SDS011;8444;52.012;5.048;2023-08-24T09:57:12;12.23;;;7.60;;
16660;SDS011;8444;52.012;5.048;2023-08-24T09:59:38;11.80;;;8.23;;
16660;SDS011;8444;52.012;5.048;2023-08-24T10:02:04;8.07;;;6.95;;
16660;SDS011;8444;52.012;5.048;2023-08-24T10:04:33;10.90;;;8.70;;
16660;SDS011;8444;52.012;5.048;2023-08-24T10:09:31;14.38;;;9.40;;
16660;SDS011;8444;52.012;5.048;2023-08-24T10:11:58;9.18;;;6.75;;
16660;SDS011;8444;52.012;5.048;2023-08-24T10:14:26;11.48;;;8.75;;
16660;SDS011;8444;52.012;5.048;2023-08-24T10:16:53;8.75;;;7.07;;
16660;SDS011;8444;52.012;5.048;2023-08-24T10:19:20;10.38;;;7.47;;
16660;SDS011;8444;52.012;5.048;2023-08-24T10:21:47;13.35;;;10.07;;
16660;SDS011;8444;52.012;5.048;2023-08-24T10:24:13;9.52;;;7.80;;
16660;SDS011;8444;52.012;5.048;2023-08-24T10:26:39;11.10;;;8.85;;
16660;SDS011;8444;52.012;5.048;2023-08-24T10:29:06;14.10;;;9.02;;
16660;SDS011;8444;52.012;5.048;2023-08-24T10:31:31;12.75;;;9.57;;
16660;SDS011;8444;52.012;5.048;2023-08-24T10:33:57;12.80;;;9.32;;
16660;SDS011;8444;52.012;5.048;2023-08-24T10:36:23;12.68;;;9.20;;
16660;SDS011;8444;52.012;5.048;2023-08-24T10:38:49;14.25;;;10.65;;
16660;SDS011;8444;52.012;5.048;2023-08-24T10:41:14;14.57;;;10.05;;
16660;SDS011;8444;52.012;5.048;2023-08-24T10:43:40;17.75;;;12.25;;
16660;SDS011;8444;52.012;5.048;2023-08-24T10:46:12;14.80;;;10.20;;
16660;SDS011;8444;52.012;5.048;2023-08-24T10:51:16;13.35;;;11.23;;
16660;SDS011;8444;52.012;5.048;2023-08-24T10:54:00;14.48;;;11.00;;
16660;SDS011;8444;52.012;5.048;2023-08-24T10:56:34;15.93;;;9.77;;
16660;SDS011;8444;52.012;5.048;2023-08-24T10:59:09;13.15;;;10.02;;
16660;SDS011;8444;52.012;5.048;2023-08-24T11:01:37;18.15;;;11.43;;
16660;SDS011;8444;52.012;5.048;2023-08-24T11:04:03;14.35;;;10.63;;
16660;SDS011;8444;52.012;5.048;2023-08-24T11:06:29;17.85;;;12.02;;
16660;SDS011;8444;52.012;5.048;2023-08-24T11:09:07;13.52;;;11.00;;
16660;SDS011;8444;52.012;5.048;2023-08-24T11:11:40;12.85;;;10.07;;
16660;SDS011;8444;52.012;5.048;2023-08-24T11:16:45;14.43;;;12.25;;
16660;SDS011;8444;52.012;5.048;2023-08-24T11:19:11;12.80;;;10.52;;
16660;SDS011;8444;52.012;5.048;2023-08-24T11:21:37;12.88;;;10.93;;
16660;SDS011;8444;52.012;5.048;2023-08-24T11:24:03;13.70;;;12.02;;
16660;SDS011;8444;52.012;5.048;2023-08-24T11:26:29;12.80;;;11.35;;
16660;SDS011;8444;52.012;5.048;2023-08-24T11:28:56;15.43;;;11.57;;
16660;SDS011;8444;52.012;5.048;2023-08-24T11:31:23;16.52;;;13.45;;
16660;SDS011;8444;52.012;5.048;2023-08-24T11:33:48;14.45;;;12.93;;
16660;SDS011;8444;52.012;5.048;2023-08-24T11:36:13;17.42;;;12.60;;
16660;SDS011;8444;52.012;5.048;2023-08-24T11:38:41;16.85;;;10.70;;
16660;SDS011;8444;52.012;5.048;2023-08-24T11:41:17;13.48;;;11.50;;
16660;SDS011;8444;52.012;5.048;2023-08-24T11:43:43;17.98;;;11.88;;
16660;SDS011;8444;52.012;5.048;2023-08-24T11:46:08;17.80;;;11.95;;
16660;SDS011;8444;52.012;5.048;2023-08-24T11:48:33;13.30;;;11.02;;
16660;SDS011;8444;52.012;5.048;2023-08-24T11:51:02;12.95;;;11.60;;
16660;SDS011;8444;52.012;5.048;2023-08-24T11:53:28;15.30;;;12.38;;
16660;SDS011;8444;52.012;5.048;2023-08-24T11:55:54;13.05;;;11.18;;
16660;SDS011;8444;52.012;5.048;2023-08-24T11:58:20;12.82;;;10.60;;
16660;SDS011;8444;52.012;5.048;2023-08-24T12:00:45;15.80;;;13.00;;
16660;SDS011;8444;52.012;5.048;2023-08-24T12:03:11;16.60;;;11.02;;
16660;SDS011;8444;52.012;5.048;2023-08-24T12:05:37;15.70;;;11.07;;
16660;SDS011;8444;52.012;5.048;2023-08-24T12:08:02;14.30;;;10.00;;
16660;SDS011;8444;52.012;5.048;2023-08-24T12:10:28;13.90;;;12.48;;
16660;SDS011;8444;52.012;5.048;2023-08-24T12:13:05;14.93;;;12.15;;
16660;SDS011;8444;52.012;5.048;2023-08-24T12:15:33;11.52;;;9.25;;
16660;SDS011;8444;52.012;5.048;2023-08-24T12:18:06;12.00;;;8.52;;
16660;SDS011;8444;52.012;5.048;2023-08-24T12:20:31;17.35;;;12.02;;
16660;SDS011;8444;52.012;5.048;2023-08-24T12:22:57;15.20;;;11.38;;
16660;SDS011;8444;52.012;5.048;2023-08-24T12:25:24;12.40;;;9.98;;
16660;SDS011;8444;52.012;5.048;2023-08-24T12:27:53;13.52;;;12.02;;
16660;SDS011;8444;52.012;5.048;2023-08-24T12:30:32;12.40;;;10.43;;
16660;SDS011;8444;52.012;5.048;2023-08-24T12:32:58;12.30;;;10.85;;
16660;SDS011;8444;52.012;5.048;2023-08-24T12:35:23;18.57;;;10.63;;
16660;SDS011;8444;52.012;5.048;2023-08-24T12:37:49;14.13;;;11.63;;
16660;SDS011;8444;52.012;5.048;2023-08-24T12:40:14;17.37;;;12.07;;
16660;SDS011;8444;52.012;5.048;2023-08-24T12:42:40;13.75;;;11.40;;
16660;SDS011;8444;52.012;5.048;2023-08-24T12:45:05;14.73;;;11.88;;
16660;SDS011;8444;52.012;5.048;2023-08-24T12:47:31;15.13;;;11.52;;
16660;SDS011;8444;52.012;5.048;2023-08-24T12:49:56;15.38;;;11.20;;
16660;SDS011;8444;52.012;5.048;2023-08-24T12:52:22;18.08;;;10.75;;
16660;SDS011;8444;52.012;5.048;2023-08-24T12:54:48;15.88;;;10.88;;
16660;SDS011;8444;52.012;5.048;2023-08-24T12:57:14;20.85;;;11.00;;
16660;SDS011;8444;52.012;5.048;2023-08-24T12:59:39;14.07;;;10.13;;
16660;SDS011;8444;52.012;5.048;2023-08-24T13:02:05;14.40;;;11.65;;
16660;SDS011;8444;52.012;5.048;2023-08-24T13:04:30;15.23;;;10.25;;
16660;SDS011;8444;52.012;5.048;2023-08-24T13:06:57;12.35;;;10.38;;
16660;SDS011;8444;52.012;5.048;2023-08-24T13:09:22;13.60;;;11.30;;
16660;SDS011;8444;52.012;5.048;2023-08-24T13:11:48;15.82;;;12.60;;
16660;SDS011;8444;52.012;5.048;2023-08-24T13:14:13;12.77;;;10.55;;
16660;SDS011;8444;52.012;5.048;2023-08-24T13:16:39;17.87;;;11.17;;
16660;SDS011;8444;52.012;5.048;2023-08-24T13:19:04;16.07;;;13.67;;
16660;SDS011;8444;52.012;5.048;2023-08-24T13:21:29;12.47;;;10.70;;
16660;SDS011;8444;52.012;5.048;2023-08-24T13:23:54;14.73;;;12.10;;
16660;SDS011;8444;52.012;5.048;2023-08-24T13:26:20;13.93;;;11.60;;
16660;SDS011;8444;52.012;5.048;2023-08-24T13:28:46;13.32;;;11.30;;
16660;SDS011;8444;52.012;5.048;2023-08-24T13:31:12;15.52;;;13.10;;
16660;SDS011;8444;52.012;5.048;2023-08-24T13:33:37;15.60;;;12.43;;
16660;SDS011;8444;52.012;5.048;2023-08-24T13:36:02;15.40;;;13.33;;
16660;SDS011;8444;52.012;5.048;2023-08-24T13:38:28;17.02;;;12.15;;
16660;SDS011;8444;52.012;5.048;2023-08-24T13:40:53;16.37;;;12.23;;
16660;SDS011;8444;52.012;5.048;2023-08-24T13:43:18;16.40;;;12.00;;
16660;SDS011;8444;52.012;5.048;2023-08-24T13:45:45;14.95;;;12.75;;
16660;SDS011;8444;52.012;5.048;2023-08-24T13:48:10;12.23;;;10.93;;
16660;SDS011;8444;52.012;5.048;2023-08-24T13:50:35;13.02;;;11.60;;
16660;SDS011;8444;52.012;5.048;2023-08-24T13:53:00;17.88;;;12.75;;
16660;SDS011;8444;52.012;5.048;2023-08-24T13:55:26;15.07;;;12.13;;
16660;SDS011;8444;52.012;5.048;2023-08-24T13:57:51;14.03;;;12.30;;
16660;SDS011;8444;52.012;5.048;2023-08-24T14:00:16;13.53;;;11.70;;
16660;SDS011;8444;52.012;5.048;2023-08-24T14:02:41;11.52;;;9.70;;
16660;SDS011;8444;52.012;5.048;2023-08-24T14:05:07;15.80;;;13.30;;
16660;SDS011;8444;52.012;5.048;2023-08-24T14:07:34;13.10;;;9.10;;
16660;SDS011;8444;52.012;5.048;2023-08-24T14:10:00;17.88;;;12.23;;
16660;SDS011;8444;52.012;5.048;2023-08-24T14:12:25;13.90;;;10.15;;
16660;SDS011;8444;52.012;5.048;2023-08-24T14:14:51;16.77;;;11.57;;
16660;SDS011;8444;52.012;5.048;2023-08-24T14:17:16;12.38;;;10.73;;
16660;SDS011;8444;52.012;5.048;2023-08-24T14:19:41;12.97;;;10.13;;
16660;SDS011;8444;52.012;5.048;2023-08-24T14:22:06;14.00;;;10.25;;
16660;SDS011;8444;52.012;5.048;2023-08-24T14:24:32;13.00;;;10.63;;
16660;SDS011;8444;52.012;5.048;2023-08-24T14:26:59;13.32;;;10.68;;
16660;SDS011;8444;52.012;5.048;2023-08-24T14:29:24;13.40;;;9.93;;
16660;SDS011;8444;52.012;5.048;2023-08-24T14:31:50;11.55;;;10.13;;
16660;SDS011;8444;52.012;5.048;2023-08-24T14:34:15;12.52;;;10.05;;
16660;SDS011;8444;52.012;5.048;2023-08-24T14:36:40;15.03;;;10.70;;
16660;SDS011;8444;52.012;5.048;2023-08-24T14:39:05;15.70;;;11.95;;
16660;SDS011;8444;52.012;5.048;2023-08-24T14:41:32;14.75;;;11.23;;
16660;SDS011;8444;52.012;5.048;2023-08-24T14:43:57;12.57;;;10.15;;
16660;SDS011;8444;52.012;5.048;2023-08-24T14:46:23;13.13;;;11.70;;
16660;SDS011;8444;52.012;5.048;2023-08-24T14:48:48;12.98;;;11.57;;
16660;SDS011;8444;52.012;5.048;2023-08-24T14:51:13;14.50;;;11.18;;